sensor_id;sensor_type;location;lat;lon;timestamp;P1;durP1;ratioP1;P2;durP2;ratioP2
17441;SDS011;8838;50.144;8.176;2022-12-05T00:00:27;24.23;;;12.87;;
17441;SDS011;8838;50.144;8.176;2022-12-05T00:02:55;23.77;;;12.80;;
17441;SDS011;8838;50.144;8.176;2022-12-05T00:05:22;20.57;;;12.27;;
17441;SDS011;8838;50.144;8.176;2022-12-05T00:07:49;20.97;;;11.57;;
17441;SDS011;8838;50.144;8.176;2022-12-05T00:10:16;21.50;;;11.73;;
17441;SDS011;8838;50.144;8.176;2022-12-05T00:12:43;18.07;;;10.60;;
17441;SDS011;8838;50.144;8.176;2022-12-05T00:15:10;19.63;;;11.20;;
17441;SDS011;8838;50.144;8.176;2022-12-05T00:17:37;16.00;;;9.97;;
17441;SDS011;8838;50.144;8.176;2022-12-05T00:20:07;17.23;;;10.33;;
17441;SDS011;8838;50.144;8.176;2022-12-05T00:22:35;13.43;;;9.40;;
17441;SDS011;8838;50.144;8.176;2022-12-05T00:25:03;15.30;;;9.37;;
17441;SDS011;8838;50.144;8.176;2022-12-05T00:27:31;16.93;;;9.40;;
17441;SDS011;8838;50.144;8.176;2022-12-05T00:29:59;17.27;;;10.37;;
17441;SDS011;8838;50.144;8.176;2022-12-05T00:32:27;17.07;;;9.73;;
17441;SDS011;8838;50.144;8.176;2022-12-05T00:34:54;16.90;;;9.97;;
17441;SDS011;8838;50.144;8.176;2022-12-05T00:37:23;14.17;;;8.53;;
17441;SDS011;8838;50.144;8.176;2022-12-05T00:39:50;11.77;;;7.60;;
17441;SDS011;8838;50.144;8.176;2022-12-05T00:42:26;13.50;;;8.83;;
17441;SDS011;8838;50.144;8.176;2022-12-05T00:44:53;12.13;;;7.60;;
17441;SDS011;8838;50.144;8.176;2022-12-05T00:47:20;13.83;;;7.23;;
17441;SDS011;8838;50.144;8.176;2022-12-05T00:49:46;12.20;;;7.60;;
17441;SDS011;8838;50.144;8.176;2022-12-05T00:52:13;14.30;;;8.13;;
17441;SDS011;8838;50.144;8.176;2022-12-05T00:54:41;16.40;;;9.20;;
17441;SDS011;8838;50.144;8.176;2022-12-05T00:57:08;13.17;;;8.50;;
17441;SDS011;8838;50.144;8.176;2022-12-05T00:59:35;14.20;;;9.10;;
17441;SDS011;8838;50.144;8.176;2022-12-05T01:02:02;15.63;;;8.70;;
17441;SDS011;8838;50.144;8.176;2022-12-05T01:04:29;12.90;;;7.97;;
17441;SDS011;8838;50.144;8.176;2022-12-05T01:06:56;12.77;;;7.80;;
17441;SDS011;8838;50.144;8.176;2022-12-05T01:09:24;15.40;;;8.60;;
17441;SDS011;8838;50.144;8.176;2022-12-05T01:11:52;14.80;;;8.40;;
17441;SDS011;8838;50.144;8.176;2022-12-05T01:14:20;14.03;;;7.90;;
17441;SDS011;8838;50.144;8.176;2022-12-05T01:16:49;12.67;;;7.80;;
17441;SDS011;8838;50.144;8.176;2022-12-05T01:19:17;10.10;;;7.10;;
17441;SDS011;8838;50.144;8.176;2022-12-05T01:21:46;12.13;;;6.90;;
17441;SDS011;8838;50.144;8.176;2022-12-05T01:24:13;9.60;;;6.20;;
17441;SDS011;8838;50.144;8.176;2022-12-05T01:26:41;9.43;;;6.20;;
17441;SDS011;8838;50.144;8.176;2022-12-05T01:29:10;9.13;;;6.27;;
17441;SDS011;8838;50.144;8.176;2022-12-05T01:31:39;9.63;;;6.20;;
17441;SDS011;8838;50.144;8.176;2022-12-05T01:34:06;9.67;;;6.50;;
17441;SDS011;8838;50.144;8.176;2022-12-05T01:36:35;9.77;;;6.90;;
17441;SDS011;8838;50.144;8.176;2022-12-05T01:39:03;8.43;;;6.17;;
17441;SDS011;8838;50.144;8.176;2022-12-05T01:41:31;8.73;;;6.10;;
17441;SDS011;8838;50.144;8.176;2022-12-05T01:44:00;7.93;;;6.03;;
17441;SDS011;8838;50.144;8.176;2022-12-05T01:46:30;8.43;;;6.00;;
17441;SDS011;8838;50.144;8.176;2022-12-05T01:48:59;8.47;;;5.03;;
17441;SDS011;8838;50.144;8.176;2022-12-05T01:51:29;8.10;;;5.87;;
17441;SDS011;8838;50.144;8.176;2022-12-05T01:53:58;6.97;;;5.40;;
17441;SDS011;8838;50.144;8.176;2022-12-05T01:56:25;9.37;;;6.10;;
17441;SDS011;8838;50.144;8.176;2022-12-05T01:58:52;8.23;;;6.23;;
17441;SDS011;8838;50.144;8.176;2022-12-05T02:01:33;9.27;;;5.60;;
17441;SDS011;8838;50.144;8.176;2022-12-05T02:04:00;7.50;;;5.57;;
17441;SDS011;8838;50.144;8.176;2022-12-05T02:06:28;8.03;;;5.43;;
17441;SDS011;8838;50.144;8.176;2022-12-05T02:08:55;7.73;;;5.60;;
17441;SDS011;8838;50.144;8.176;2022-12-05T02:11:23;7.83;;;5.47;;
17441;SDS011;8838;50.144;8.176;2022-12-05T02:13:58;7.00;;;5.40;;
17441;SDS011;8838;50.144;8.176;2022-12-05T02:16:38;8.87;;;5.93;;
17441;SDS011;8838;50.144;8.176;2022-12-05T02:19:23;8.73;;;5.63;;
17441;SDS011;8838;50.144;8.176;2022-12-05T02:22:24;8.47;;;5.83;;
17441;SDS011;8838;50.144;8.176;2022-12-05T02:25:10;7.83;;;5.80;;
17441;SDS011;8838;50.144;8.176;2022-12-05T02:28:01;8.20;;;5.73;;
17441;SDS011;8838;50.144;8.176;2022-12-05T02:30:58;8.80;;;6.10;;
17441;SDS011;8838;50.144;8.176;2022-12-05T02:33:33;10.20;;;6.80;;
17441;SDS011;8838;50.144;8.176;2022-12-05T02:36:04;12.40;;;6.57;;
17441;SDS011;8838;50.144;8.176;2022-12-05T02:38:38;7.93;;;5.80;;
17441;SDS011;8838;50.144;8.176;2022-12-05T02:41:11;8.80;;;5.70;;
17441;SDS011;8838;50.144;8.176;2022-12-05T02:43:44;7.40;;;5.57;;
17441;SDS011;8838;50.144;8.176;2022-12-05T02:46:20;9.77;;;6.37;;
17441;SDS011;8838;50.144;8.176;2022-12-05T02:48:48;8.77;;;5.97;;
17441;SDS011;8838;50.144;8.176;2022-12-05T02:51:20;8.60;;;5.93;;
17441;SDS011;8838;50.144;8.176;2022-12-05T02:53:50;7.73;;;5.83;;
17441;SDS011;8838;50.144;8.176;2022-12-05T02:56:18;8.13;;;6.27;;
17441;SDS011;8838;50.144;8.176;2022-12-05T02:58:47;8.97;;;6.37;;
17441;SDS011;8838;50.144;8.176;2022-12-05T03:01:19;6.57;;;5.07;;
17441;SDS011;8838;50.144;8.176;2022-12-05T03:03:49;8.47;;;5.93;;
17441;SDS011;8838;50.144;8.176;2022-12-05T03:06:17;8.47;;;5.63;;
17441;SDS011;8838;50.144;8.176;2022-12-05T03:08:48;7.57;;;5.20;;
17441;SDS011;8838;50.144;8.176;2022-12-05T03:11:19;6.47;;;4.50;;
17441;SDS011;8838;50.144;8.176;2022-12-05T03:13:47;7.10;;;5.10;;
17441;SDS011;8838;50.144;8.176;2022-12-05T03:16:20;7.50;;;5.37;;
17441;SDS011;8838;50.144;8.176;2022-12-05T03:18:55;7.50;;;5.50;;
17441;SDS011;8838;50.144;8.176;2022-12-05T03:21:26;6.37;;;5.33;;
17441;SDS011;8838;50.144;8.176;2022-12-05T03:24:00;7.40;;;5.60;;
17441;SDS011;8838;50.144;8.176;2022-12-05T03:26:33;7.77;;;5.50;;
17441;SDS011;8838;50.144;8.176;2022-12-05T03:29:06;9.03;;;5.77;;
17441;SDS011;8838;50.144;8.176;2022-12-05T03:31:44;7.63;;;5.50;;
17441;SDS011;8838;50.144;8.176;2022-12-05T03:34:19;8.40;;;5.13;;
17441;SDS011;8838;50.144;8.176;2022-12-05T03:36:53;8.30;;;5.80;;
17441;SDS011;8838;50.144;8.176;2022-12-05T03:39:21;7.83;;;5.30;;
17441;SDS011;8838;50.144;8.176;2022-12-05T03:41:52;9.50;;;5.70;;
17441;SDS011;8838;50.144;8.176;2022-12-05T03:44:27;7.33;;;5.30;;
17441;SDS011;8838;50.144;8.176;2022-12-05T03:47:02;8.93;;;5.17;;
17441;SDS011;8838;50.144;8.176;2022-12-05T03:49:35;10.07;;;5.63;;
17441;SDS011;8838;50.144;8.176;2022-12-05T03:52:07;8.57;;;5.77;;
17441;SDS011;8838;50.144;8.176;2022-12-05T03:54:37;10.67;;;6.27;;
17441;SDS011;8838;50.144;8.176;2022-12-05T03:57:10;8.40;;;5.70;;
17441;SDS011;8838;50.144;8.176;2022-12-05T03:59:41;10.97;;;6.37;;
17441;SDS011;8838;50.144;8.176;2022-12-05T04:02:14;11.07;;;5.93;;
17441;SDS011;8838;50.144;8.176;2022-12-05T04:04:47;25.47;;;11.37;;
17441;SDS011;8838;50.144;8.176;2022-12-05T04:07:18;22.47;;;10.60;;
17441;SDS011;8838;50.144;8.176;2022-12-05T04:09:47;25.17;;;10.77;;
17441;SDS011;8838;50.144;8.176;2022-12-05T04:12:21;22.07;;;10.17;;
17441;SDS011;8838;50.144;8.176;2022-12-05T04:14:53;28.33;;;11.03;;
17441;SDS011;8838;50.144;8.176;2022-12-05T04:17:25;24.30;;;11.77;;
17441;SDS011;8838;50.144;8.176;2022-12-05T04:19:57;24.40;;;10.50;;
17441;SDS011;8838;50.144;8.176;2022-12-05T04:22:50;53.10;;;12.10;;
17441;SDS011;8838;50.144;8.176;2022-12-05T04:25:17;41.07;;;11.97;;
17441;SDS011;8838;50.144;8.176;2022-12-05T04:28:10;46.70;;;12.20;;
17441;SDS011;8838;50.144;8.176;2022-12-05T04:30:47;64.47;;;12.87;;
17441;SDS011;8838;50.144;8.176;2022-12-05T04:33:19;68.63;;;13.63;;
17441;SDS011;8838;50.144;8.176;2022-12-05T04:35:52;45.73;;;12.47;;
17441;SDS011;8838;50.144;8.176;2022-12-05T04:38:24;128.97;;;16.07;;
17441;SDS011;8838;50.144;8.176;2022-12-05T04:40:56;73.07;;;14.00;;
17441;SDS011;8838;50.144;8.176;2022-12-05T04:43:25;118.37;;;15.10;;
17441;SDS011;8838;50.144;8.176;2022-12-05T04:45:56;80.60;;;14.07;;
17441;SDS011;8838;50.144;8.176;2022-12-05T04:48:26;41.77;;;12.70;;
17441;SDS011;8838;50.144;8.176;2022-12-05T04:50:54;65.37;;;14.20;;
17441;SDS011;8838;50.144;8.176;2022-12-05T04:53:25;46.63;;;13.50;;
17441;SDS011;8838;50.144;8.176;2022-12-05T04:55:54;42.03;;;12.50;;
17441;SDS011;8838;50.144;8.176;2022-12-05T04:58:25;70.77;;;15.23;;
17441;SDS011;8838;50.144;8.176;2022-12-05T05:00:54;107.60;;;14.40;;
17441;SDS011;8838;50.144;8.176;2022-12-05T05:03:29;37.77;;;12.60;;
17441;SDS011;8838;50.144;8.176;2022-12-05T05:05:59;51.83;;;12.87;;
17441;SDS011;8838;50.144;8.176;2022-12-05T05:08:27;42.80;;;12.50;;
17441;SDS011;8838;50.144;8.176;2022-12-05T05:11:00;34.43;;;11.27;;
17441;SDS011;8838;50.144;8.176;2022-12-05T05:13:34;51.77;;;12.27;;
17441;SDS011;8838;50.144;8.176;2022-12-05T05:16:01;41.67;;;10.93;;
17441;SDS011;8838;50.144;8.176;2022-12-05T05:18:30;22.00;;;11.13;;
17441;SDS011;8838;50.144;8.176;2022-12-05T05:20:57;27.97;;;11.63;;
17441;SDS011;8838;50.144;8.176;2022-12-05T05:23:24;27.07;;;12.07;;
17441;SDS011;8838;50.144;8.176;2022-12-05T05:25:52;23.43;;;10.90;;
17441;SDS011;8838;50.144;8.176;2022-12-05T05:28:21;34.27;;;10.80;;
17441;SDS011;8838;50.144;8.176;2022-12-05T05:30:48;66.47;;;11.40;;
17441;SDS011;8838;50.144;8.176;2022-12-05T05:33:15;27.43;;;11.07;;
17441;SDS011;8838;50.144;8.176;2022-12-05T05:35:43;33.57;;;11.33;;
17441;SDS011;8838;50.144;8.176;2022-12-05T05:38:10;53.70;;;12.33;;
17441;SDS011;8838;50.144;8.176;2022-12-05T05:40:37;70.67;;;12.80;;
17441;SDS011;8838;50.144;8.176;2022-12-05T05:43:04;43.93;;;12.37;;
17441;SDS011;8838;50.144;8.176;2022-12-05T05:45:31;42.73;;;12.33;;
17441;SDS011;8838;50.144;8.176;2022-12-05T05:47:58;108.23;;;14.00;;
17441;SDS011;8838;50.144;8.176;2022-12-05T05:50:24;157.13;;;16.77;;
17441;SDS011;8838;50.144;8.176;2022-12-05T05:52:53;119.43;;;16.27;;
17441;SDS011;8838;50.144;8.176;2022-12-05T05:55:21;74.80;;;13.63;;
17441;SDS011;8838;50.144;8.176;2022-12-05T05:57:47;178.33;;;19.87;;
17441;SDS011;8838;50.144;8.176;2022-12-05T06:00:15;139.33;;;14.13;;
17441;SDS011;8838;50.144;8.176;2022-12-05T06:02:42;145.57;;;14.33;;
17441;SDS011;8838;50.144;8.176;2022-12-05T06:05:11;184.17;;;17.40;;
17441;SDS011;8838;50.144;8.176;2022-12-05T06:07:37;168.10;;;14.27;;
17441;SDS011;8838;50.144;8.176;2022-12-05T06:10:06;119.60;;;15.63;;
17441;SDS011;8838;50.144;8.176;2022-12-05T06:12:34;264.30;;;17.27;;
17441;SDS011;8838;50.144;8.176;2022-12-05T06:15:01;178.77;;;15.90;;
17441;SDS011;8838;50.144;8.176;2022-12-05T06:17:27;128.30;;;12.03;;
17441;SDS011;8838;50.144;8.176;2022-12-05T06:19:55;419.63;;;19.67;;
17441;SDS011;8838;50.144;8.176;2022-12-05T06:22:22;46.67;;;10.20;;
17441;SDS011;8838;50.144;8.176;2022-12-05T06:24:49;82.33;;;11.90;;
17441;SDS011;8838;50.144;8.176;2022-12-05T06:27:18;114.17;;;11.43;;
17441;SDS011;8838;50.144;8.176;2022-12-05T06:29:44;42.37;;;9.57;;
17441;SDS011;8838;50.144;8.176;2022-12-05T06:32:11;37.83;;;9.67;;
17441;SDS011;8838;50.144;8.176;2022-12-05T06:34:38;46.23;;;10.33;;
17441;SDS011;8838;50.144;8.176;2022-12-05T06:37:05;20.30;;;9.53;;
17441;SDS011;8838;50.144;8.176;2022-12-05T06:39:32;21.87;;;9.77;;
17441;SDS011;8838;50.144;8.176;2022-12-05T06:42:00;18.57;;;9.70;;
17441;SDS011;8838;50.144;8.176;2022-12-05T06:44:28;20.00;;;10.00;;
17441;SDS011;8838;50.144;8.176;2022-12-05T06:46:55;35.70;;;10.00;;
17441;SDS011;8838;50.144;8.176;2022-12-05T06:49:22;25.30;;;9.93;;
17441;SDS011;8838;50.144;8.176;2022-12-05T06:51:50;20.33;;;10.20;;
17441;SDS011;8838;50.144;8.176;2022-12-05T06:54:19;21.00;;;10.40;;
17441;SDS011;8838;50.144;8.176;2022-12-05T06:56:46;18.53;;;9.47;;
17441;SDS011;8838;50.144;8.176;2022-12-05T06:59:13;22.50;;;9.73;;
17441;SDS011;8838;50.144;8.176;2022-12-05T07:01:41;17.43;;;9.63;;
17441;SDS011;8838;50.144;8.176;2022-12-05T07:04:09;18.27;;;9.57;;
17441;SDS011;8838;50.144;8.176;2022-12-05T07:06:39;26.53;;;9.00;;
17441;SDS011;8838;50.144;8.176;2022-12-05T07:09:07;34.47;;;9.40;;
17441;SDS011;8838;50.144;8.176;2022-12-05T07:11:34;18.87;;;8.63;;
17441;SDS011;8838;50.144;8.176;2022-12-05T07:14:02;23.13;;;8.30;;
17441;SDS011;8838;50.144;8.176;2022-12-05T07:16:30;43.17;;;9.37;;
17441;SDS011;8838;50.144;8.176;2022-12-05T07:18:58;39.70;;;9.33;;
17441;SDS011;8838;50.144;8.176;2022-12-05T07:21:25;21.97;;;8.50;;
17441;SDS011;8838;50.144;8.176;2022-12-05T07:23:52;16.77;;;8.73;;
17441;SDS011;8838;50.144;8.176;2022-12-05T07:26:20;19.97;;;8.37;;
17441;SDS011;8838;50.144;8.176;2022-12-05T07:28:49;15.27;;;8.00;;
17441;SDS011;8838;50.144;8.176;2022-12-05T07:31:17;13.33;;;7.97;;
17441;SDS011;8838;50.144;8.176;2022-12-05T07:33:50;14.07;;;8.10;;
17441;SDS011;8838;50.144;8.176;2022-12-05T07:36:19;12.87;;;8.20;;
17441;SDS011;8838;50.144;8.176;2022-12-05T07:38:47;13.17;;;6.87;;
17441;SDS011;8838;50.144;8.176;2022-12-05T07:41:15;11.73;;;7.30;;
17441;SDS011;8838;50.144;8.176;2022-12-05T07:43:46;12.43;;;7.47;;
17441;SDS011;8838;50.144;8.176;2022-12-05T07:46:13;12.77;;;7.57;;
17441;SDS011;8838;50.144;8.176;2022-12-05T07:48:41;12.30;;;7.30;;
17441;SDS011;8838;50.144;8.176;2022-12-05T07:51:08;13.07;;;7.70;;
17441;SDS011;8838;50.144;8.176;2022-12-05T07:53:37;12.23;;;6.93;;
17441;SDS011;8838;50.144;8.176;2022-12-05T07:56:06;11.47;;;6.90;;
17441;SDS011;8838;50.144;8.176;2022-12-05T07:58:34;12.87;;;7.33;;
17441;SDS011;8838;50.144;8.176;2022-12-05T08:01:05;16.97;;;8.80;;
17441;SDS011;8838;50.144;8.176;2022-12-05T08:03:34;17.27;;;9.20;;
17441;SDS011;8838;50.144;8.176;2022-12-05T08:06:02;16.53;;;8.23;;
17441;SDS011;8838;50.144;8.176;2022-12-05T08:08:30;29.60;;;15.63;;
17441;SDS011;8838;50.144;8.176;2022-12-05T08:11:02;26.93;;;15.23;;
17441;SDS011;8838;50.144;8.176;2022-12-05T08:13:30;17.53;;;10.20;;
17441;SDS011;8838;50.144;8.176;2022-12-05T08:15:59;16.17;;;9.23;;
17441;SDS011;8838;50.144;8.176;2022-12-05T08:18:27;15.43;;;8.47;;
17441;SDS011;8838;50.144;8.176;2022-12-05T08:20:54;14.57;;;8.27;;
17441;SDS011;8838;50.144;8.176;2022-12-05T08:23:26;14.57;;;9.03;;
17441;SDS011;8838;50.144;8.176;2022-12-05T08:25:55;14.20;;;8.40;;
17441;SDS011;8838;50.144;8.176;2022-12-05T08:28:28;14.93;;;8.13;;
17441;SDS011;8838;50.144;8.176;2022-12-05T08:31:01;13.20;;;7.53;;
17441;SDS011;8838;50.144;8.176;2022-12-05T08:33:29;15.10;;;8.07;;
17441;SDS011;8838;50.144;8.176;2022-12-05T08:35:56;13.63;;;7.70;;
17441;SDS011;8838;50.144;8.176;2022-12-05T08:38:24;13.53;;;7.63;;
17441;SDS011;8838;50.144;8.176;2022-12-05T08:40:51;14.03;;;7.70;;
17441;SDS011;8838;50.144;8.176;2022-12-05T08:43:18;20.37;;;8.57;;
17441;SDS011;8838;50.144;8.176;2022-12-05T08:45:49;17.23;;;8.83;;
17441;SDS011;8838;50.144;8.176;2022-12-05T08:48:16;14.50;;;8.67;;
17441;SDS011;8838;50.144;8.176;2022-12-05T08:50:43;38.83;;;9.30;;
17441;SDS011;8838;50.144;8.176;2022-12-05T08:53:11;16.97;;;9.20;;
17441;SDS011;8838;50.144;8.176;2022-12-05T08:55:38;69.70;;;9.83;;
17441;SDS011;8838;50.144;8.176;2022-12-05T08:58:05;19.23;;;7.97;;
17441;SDS011;8838;50.144;8.176;2022-12-05T09:00:32;20.43;;;8.97;;
17441;SDS011;8838;50.144;8.176;2022-12-05T09:03:00;32.80;;;9.33;;
17441;SDS011;8838;50.144;8.176;2022-12-05T09:05:27;45.93;;;9.23;;
17441;SDS011;8838;50.144;8.176;2022-12-05T09:07:54;70.83;;;10.47;;
17441;SDS011;8838;50.144;8.176;2022-12-05T09:10:21;38.57;;;9.63;;
17441;SDS011;8838;50.144;8.176;2022-12-05T09:12:48;51.97;;;9.90;;
17441;SDS011;8838;50.144;8.176;2022-12-05T09:15:16;137.00;;;12.90;;
17441;SDS011;8838;50.144;8.176;2022-12-05T09:17:43;15.93;;;9.33;;
17441;SDS011;8838;50.144;8.176;2022-12-05T09:20:11;20.73;;;9.57;;
17441;SDS011;8838;50.144;8.176;2022-12-05T09:22:39;53.87;;;11.17;;
17441;SDS011;8838;50.144;8.176;2022-12-05T09:25:06;19.70;;;9.97;;
17441;SDS011;8838;50.144;8.176;2022-12-05T09:27:34;23.53;;;10.70;;
17441;SDS011;8838;50.144;8.176;2022-12-05T09:30:02;23.27;;;10.60;;
17441;SDS011;8838;50.144;8.176;2022-12-05T09:32:29;21.77;;;10.97;;
17441;SDS011;8838;50.144;8.176;2022-12-05T09:34:56;26.87;;;10.77;;
17441;SDS011;8838;50.144;8.176;2022-12-05T09:37:24;116.97;;;13.50;;
17441;SDS011;8838;50.144;8.176;2022-12-05T09:39:51;20.43;;;10.47;;
17441;SDS011;8838;50.144;8.176;2022-12-05T09:42:22;62.83;;;10.87;;
17441;SDS011;8838;50.144;8.176;2022-12-05T09:45:08;20.53;;;10.33;;
17441;SDS011;8838;50.144;8.176;2022-12-05T09:47:43;55.87;;;10.80;;
17441;SDS011;8838;50.144;8.176;2022-12-05T10:00:30;65.30;;;12.27;;
17441;SDS011;8838;50.144;8.176;2022-12-05T10:03:01;99.70;;;13.47;;
17441;SDS011;8838;50.144;8.176;2022-12-05T10:05:38;35.30;;;12.07;;
17441;SDS011;8838;50.144;8.176;2022-12-05T10:08:10;186.37;;;15.27;;
17441;SDS011;8838;50.144;8.176;2022-12-05T10:10:44;226.73;;;15.63;;
17441;SDS011;8838;50.144;8.176;2022-12-05T10:13:23;51.67;;;12.13;;
17441;SDS011;8838;50.144;8.176;2022-12-05T10:16:08;125.80;;;12.73;;
17441;SDS011;8838;50.144;8.176;2022-12-05T10:18:39;81.13;;;13.10;;
17441;SDS011;8838;50.144;8.176;2022-12-05T10:21:11;56.07;;;12.93;;
17441;SDS011;8838;50.144;8.176;2022-12-05T10:23:46;308.77;;;18.03;;
17441;SDS011;8838;50.144;8.176;2022-12-05T10:26:20;75.80;;;12.63;;
17441;SDS011;8838;50.144;8.176;2022-12-05T10:28:50;227.27;;;17.10;;
17441;SDS011;8838;50.144;8.176;2022-12-05T10:31:24;136.00;;;14.40;;
17441;SDS011;8838;50.144;8.176;2022-12-05T10:33:57;78.67;;;13.57;;
17441;SDS011;8838;50.144;8.176;2022-12-05T10:36:29;69.23;;;14.13;;
17441;SDS011;8838;50.144;8.176;2022-12-05T10:38:56;118.50;;;15.23;;
17441;SDS011;8838;50.144;8.176;2022-12-05T10:41:24;56.40;;;12.10;;
17441;SDS011;8838;50.144;8.176;2022-12-05T10:43:52;86.20;;;12.40;;
17441;SDS011;8838;50.144;8.176;2022-12-05T10:46:20;24.07;;;11.33;;
17441;SDS011;8838;50.144;8.176;2022-12-05T10:48:49;33.17;;;10.57;;
17441;SDS011;8838;50.144;8.176;2022-12-05T10:51:16;42.53;;;10.83;;
17441;SDS011;8838;50.144;8.176;2022-12-05T10:53:52;22.57;;;11.00;;
17441;SDS011;8838;50.144;8.176;2022-12-05T10:56:40;65.77;;;11.47;;
17441;SDS011;8838;50.144;8.176;2022-12-05T10:59:09;23.87;;;10.27;;
17441;SDS011;8838;50.144;8.176;2022-12-05T11:01:42;51.13;;;11.67;;
17441;SDS011;8838;50.144;8.176;2022-12-05T11:04:17;23.33;;;11.57;;
17441;SDS011;8838;50.144;8.176;2022-12-05T11:06:55;28.73;;;13.60;;
17441;SDS011;8838;50.144;8.176;2022-12-05T11:09:25;20.73;;;11.07;;
17441;SDS011;8838;50.144;8.176;2022-12-05T11:11:59;21.40;;;10.30;;
17441;SDS011;8838;50.144;8.176;2022-12-05T11:14:52;22.27;;;13.10;;
17441;SDS011;8838;50.144;8.176;2022-12-05T11:17:23;49.93;;;13.90;;
17441;SDS011;8838;50.144;8.176;2022-12-05T11:19:51;27.93;;;11.70;;
17441;SDS011;8838;50.144;8.176;2022-12-05T11:22:18;27.50;;;10.60;;
17441;SDS011;8838;50.144;8.176;2022-12-05T11:24:47;24.00;;;11.00;;
17441;SDS011;8838;50.144;8.176;2022-12-05T11:27:23;26.30;;;11.37;;
17441;SDS011;8838;50.144;8.176;2022-12-05T11:29:54;22.43;;;11.20;;
17441;SDS011;8838;50.144;8.176;2022-12-05T11:32:28;33.87;;;10.73;;
17441;SDS011;8838;50.144;8.176;2022-12-05T11:34:57;18.83;;;10.73;;
17441;SDS011;8838;50.144;8.176;2022-12-05T11:37:34;21.33;;;11.40;;
17441;SDS011;8838;50.144;8.176;2022-12-05T11:40:12;23.10;;;11.57;;
17441;SDS011;8838;50.144;8.176;2022-12-05T11:42:43;23.57;;;10.93;;
17441;SDS011;8838;50.144;8.176;2022-12-05T11:45:32;19.77;;;10.83;;
17441;SDS011;8838;50.144;8.176;2022-12-05T11:48:17;18.07;;;10.50;;
17441;SDS011;8838;50.144;8.176;2022-12-05T11:51:04;19.80;;;10.80;;
17441;SDS011;8838;50.144;8.176;2022-12-05T11:53:50;20.80;;;11.27;;
17441;SDS011;8838;50.144;8.176;2022-12-05T11:56:46;19.60;;;10.57;;
17441;SDS011;8838;50.144;8.176;2022-12-05T11:59:21;20.73;;;11.40;;
17441;SDS011;8838;50.144;8.176;2022-12-05T12:02:02;19.43;;;10.60;;
17441;SDS011;8838;50.144;8.176;2022-12-05T12:07:37;20.23;;;10.33;;
17441;SDS011;8838;50.144;8.176;2022-12-05T12:10:15;17.97;;;10.80;;
17441;SDS011;8838;50.144;8.176;2022-12-05T12:12:52;18.50;;;10.73;;
17441;SDS011;8838;50.144;8.176;2022-12-05T12:15:33;17.60;;;10.53;;
17441;SDS011;8838;50.144;8.176;2022-12-05T12:18:14;20.07;;;11.63;;
17441;SDS011;8838;50.144;8.176;2022-12-05T12:21:00;20.20;;;11.27;;
17441;SDS011;8838;50.144;8.176;2022-12-05T12:23:36;20.60;;;11.37;;
17441;SDS011;8838;50.144;8.176;2022-12-05T12:26:10;22.73;;;10.70;;
17441;SDS011;8838;50.144;8.176;2022-12-05T14:28:51;25.00;;;11.47;;
17441;SDS011;8838;50.144;8.176;2022-12-05T14:31:32;26.10;;;14.67;;
17441;SDS011;8838;50.144;8.176;2022-12-05T14:34:26;22.27;;;11.87;;
17441;SDS011;8838;50.144;8.176;2022-12-05T14:36:55;18.57;;;11.03;;
17441;SDS011;8838;50.144;8.176;2022-12-05T14:42:20;19.67;;;10.60;;
17441;SDS011;8838;50.144;8.176;2022-12-05T14:44:52;24.50;;;14.23;;
17441;SDS011;8838;50.144;8.176;2022-12-05T14:47:22;18.70;;;11.10;;
17441;SDS011;8838;50.144;8.176;2022-12-05T14:49:53;18.90;;;10.63;;
17441;SDS011;8838;50.144;8.176;2022-12-05T14:52:25;16.97;;;10.10;;
17441;SDS011;8838;50.144;8.176;2022-12-05T14:54:57;18.00;;;10.70;;
17441;SDS011;8838;50.144;8.176;2022-12-05T14:57:28;20.17;;;10.53;;
17441;SDS011;8838;50.144;8.176;2022-12-05T14:59:58;18.83;;;10.23;;
17441;SDS011;8838;50.144;8.176;2022-12-05T15:02:31;17.83;;;10.57;;
17441;SDS011;8838;50.144;8.176;2022-12-05T15:05:02;17.50;;;10.47;;
17441;SDS011;8838;50.144;8.176;2022-12-05T15:07:39;28.70;;;10.83;;
17441;SDS011;8838;50.144;8.176;2022-12-05T15:10:09;40.90;;;12.67;;
17441;SDS011;8838;50.144;8.176;2022-12-05T15:12:42;19.50;;;11.70;;
17441;SDS011;8838;50.144;8.176;2022-12-05T15:15:14;43.00;;;12.40;;
17441;SDS011;8838;50.144;8.176;2022-12-05T15:17:47;24.87;;;12.10;;
17441;SDS011;8838;50.144;8.176;2022-12-05T15:20:19;20.30;;;11.30;;
17441;SDS011;8838;50.144;8.176;2022-12-05T15:22:52;22.57;;;12.37;;
17441;SDS011;8838;50.144;8.176;2022-12-05T15:25:24;24.73;;;14.60;;
17441;SDS011;8838;50.144;8.176;2022-12-05T15:27:55;35.97;;;19.07;;
17441;SDS011;8838;50.144;8.176;2022-12-05T15:30:29;21.53;;;12.03;;
17441;SDS011;8838;50.144;8.176;2022-12-05T15:32:59;18.00;;;10.50;;
17441;SDS011;8838;50.144;8.176;2022-12-05T15:35:29;17.63;;;10.90;;
17441;SDS011;8838;50.144;8.176;2022-12-05T15:37:59;17.87;;;10.43;;
17441;SDS011;8838;50.144;8.176;2022-12-05T15:40:31;14.00;;;9.70;;
17441;SDS011;8838;50.144;8.176;2022-12-05T15:43:01;23.50;;;10.17;;
17441;SDS011;8838;50.144;8.176;2022-12-05T15:45:50;15.70;;;10.20;;
17441;SDS011;8838;50.144;8.176;2022-12-05T15:48:32;17.50;;;9.80;;
17441;SDS011;8838;50.144;8.176;2022-12-05T15:51:00;16.93;;;10.83;;
17441;SDS011;8838;50.144;8.176;2022-12-05T15:53:29;18.87;;;9.47;;
17441;SDS011;8838;50.144;8.176;2022-12-05T15:55:59;17.70;;;9.53;;
17441;SDS011;8838;50.144;8.176;2022-12-05T15:58:32;19.70;;;10.20;;
17441;SDS011;8838;50.144;8.176;2022-12-05T16:01:04;17.23;;;9.90;;
17441;SDS011;8838;50.144;8.176;2022-12-05T16:03:38;17.40;;;11.37;;
17441;SDS011;8838;50.144;8.176;2022-12-05T16:06:12;29.70;;;16.37;;
17441;SDS011;8838;50.144;8.176;2022-12-05T16:08:45;26.17;;;10.50;;
17441;SDS011;8838;50.144;8.176;2022-12-05T16:11:15;20.40;;;10.30;;
17441;SDS011;8838;50.144;8.176;2022-12-05T16:13:43;22.40;;;10.67;;
17441;SDS011;8838;50.144;8.176;2022-12-05T16:16:15;17.17;;;9.90;;
17441;SDS011;8838;50.144;8.176;2022-12-05T16:18:47;31.60;;;9.07;;
17441;SDS011;8838;50.144;8.176;2022-12-05T16:21:28;24.03;;;9.10;;
17441;SDS011;8838;50.144;8.176;2022-12-05T16:24:00;18.57;;;9.20;;
17441;SDS011;8838;50.144;8.176;2022-12-05T16:26:34;17.43;;;9.53;;
17441;SDS011;8838;50.144;8.176;2022-12-05T16:29:03;35.73;;;10.20;;
17441;SDS011;8838;50.144;8.176;2022-12-05T16:31:32;28.03;;;11.07;;
17441;SDS011;8838;50.144;8.176;2022-12-05T16:34:03;22.87;;;9.63;;
17441;SDS011;8838;50.144;8.176;2022-12-05T16:36:31;19.47;;;10.30;;
17441;SDS011;8838;50.144;8.176;2022-12-05T16:39:00;21.57;;;9.40;;
17441;SDS011;8838;50.144;8.176;2022-12-05T16:41:32;14.63;;;9.07;;
17441;SDS011;8838;50.144;8.176;2022-12-05T16:44:00;17.00;;;9.07;;
17441;SDS011;8838;50.144;8.176;2022-12-05T16:46:43;20.40;;;8.67;;
17441;SDS011;8838;50.144;8.176;2022-12-05T16:49:18;15.83;;;9.27;;
17441;SDS011;8838;50.144;8.176;2022-12-05T16:51:58;26.40;;;8.97;;
17441;SDS011;8838;50.144;8.176;2022-12-05T16:54:26;14.83;;;7.97;;
17441;SDS011;8838;50.144;8.176;2022-12-05T16:59:41;13.93;;;9.07;;
17441;SDS011;8838;50.144;8.176;2022-12-05T17:02:13;13.33;;;9.00;;
17441;SDS011;8838;50.144;8.176;2022-12-05T17:04:41;13.00;;;8.90;;
17441;SDS011;8838;50.144;8.176;2022-12-05T17:07:10;25.37;;;8.47;;
17441;SDS011;8838;50.144;8.176;2022-12-05T17:09:36;15.73;;;8.63;;
17441;SDS011;8838;50.144;8.176;2022-12-05T17:12:04;14.03;;;9.27;;
17441;SDS011;8838;50.144;8.176;2022-12-05T17:14:36;16.93;;;11.03;;
17441;SDS011;8838;50.144;8.176;2022-12-05T17:17:02;15.03;;;9.10;;
17441;SDS011;8838;50.144;8.176;2022-12-05T17:19:37;13.03;;;8.60;;
17441;SDS011;8838;50.144;8.176;2022-12-05T17:22:04;13.40;;;8.77;;
17441;SDS011;8838;50.144;8.176;2022-12-05T17:24:32;13.43;;;8.47;;